sensor_id;sensor_type;location;lat;lon;timestamp;P1;durP1;ratioP1;P2;durP2;ratioP2
52534;SDS011;38443;53.164;5.802;2023-04-06T00:03:10;11.77;;;7.10;;
52534;SDS011;38443;53.164;5.802;2023-04-06T00:05:35;12.45;;;7.18;;
52534;SDS011;38443;53.164;5.802;2023-04-06T00:10:26;15.20;;;6.85;;
52534;SDS011;38443;53.164;5.802;2023-04-06T00:12:52;11.40;;;7.57;;
52534;SDS011;38443;53.164;5.802;2023-04-06T00:17:42;10.50;;;7.07;;
52534;SDS011;38443;53.164;5.802;2023-04-06T00:22:33;12.02;;;7.00;;
52534;SDS011;38443;53.164;5.802;2023-04-06T00:27:24;10.70;;;6.65;;
52534;SDS011;38443;53.164;5.802;2023-04-06T00:32:15;11.90;;;6.93;;
52534;SDS011;38443;53.164;5.802;2023-04-06T00:37:05;10.45;;;6.45;;
52534;SDS011;38443;53.164;5.802;2023-04-06T00:41:56;10.10;;;6.57;;
52534;SDS011;38443;53.164;5.802;2023-04-06T00:46:47;11.40;;;6.20;;
52534;SDS011;38443;53.164;5.802;2023-04-06T00:49:13;13.68;;;6.55;;
52534;SDS011;38443;53.164;5.802;2023-04-06T00:54:03;9.77;;;6.83;;
52534;SDS011;38443;53.164;5.802;2023-04-06T00:58:54;9.02;;;6.50;;
52534;SDS011;38443;53.164;5.802;2023-04-06T01:03:45;11.93;;;7.45;;
52534;SDS011;38443;53.164;5.802;2023-04-06T01:06:14;11.18;;;6.75;;
52534;SDS011;38443;53.164;5.802;2023-04-06T01:11:04;8.95;;;6.55;;
52534;SDS011;38443;53.164;5.802;2023-04-06T01:13:30;9.20;;;6.65;;
52534;SDS011;38443;53.164;5.802;2023-04-06T01:18:27;9.10;;;6.68;;
52534;SDS011;38443;53.164;5.802;2023-04-06T01:20:53;11.10;;;6.90;;
52534;SDS011;38443;53.164;5.802;2023-04-06T01:25:44;7.80;;;5.85;;
52534;SDS011;38443;53.164;5.802;2023-04-06T01:30:35;9.52;;;6.75;;
52534;SDS011;38443;53.164;5.802;2023-04-06T01:35:26;12.02;;;7.10;;
52534;SDS011;38443;53.164;5.802;2023-04-06T01:37:52;10.40;;;6.50;;
52534;SDS011;38443;53.164;5.802;2023-04-06T01:42:43;11.65;;;7.22;;
52534;SDS011;38443;53.164;5.802;2023-04-06T01:47:33;12.00;;;7.43;;
52534;SDS011;38443;53.164;5.802;2023-04-06T01:52:24;9.60;;;7.23;;
52534;SDS011;38443;53.164;5.802;2023-04-06T01:57:15;12.13;;;6.70;;
52534;SDS011;38443;53.164;5.802;2023-04-06T02:02:05;9.57;;;7.00;;
52534;SDS011;38443;53.164;5.802;2023-04-06T02:04:30;11.27;;;7.40;;
52534;SDS011;38443;53.164;5.802;2023-04-06T02:06:56;11.25;;;7.22;;
52534;SDS011;38443;53.164;5.802;2023-04-06T02:11:46;12.15;;;8.18;;
52534;SDS011;38443;53.164;5.802;2023-04-06T02:16:37;10.57;;;6.80;;
52534;SDS011;38443;53.164;5.802;2023-04-06T02:19:02;10.45;;;7.28;;
52534;SDS011;38443;53.164;5.802;2023-04-06T02:23:53;10.93;;;7.07;;
52534;SDS011;38443;53.164;5.802;2023-04-06T02:28:45;9.15;;;7.10;;
52534;SDS011;38443;53.164;5.802;2023-04-06T02:33:36;10.48;;;6.97;;
52534;SDS011;38443;53.164;5.802;2023-04-06T02:38:27;9.77;;;7.40;;
52534;SDS011;38443;53.164;5.802;2023-04-06T02:43:18;11.90;;;6.60;;
52534;SDS011;38443;53.164;5.802;2023-04-06T02:45:44;10.90;;;6.47;;
52534;SDS011;38443;53.164;5.802;2023-04-06T02:50:35;10.63;;;7.53;;
52534;SDS011;38443;53.164;5.802;2023-04-06T02:53:00;12.77;;;7.82;;
52534;SDS011;38443;53.164;5.802;2023-04-06T02:57:51;12.50;;;7.90;;
52534;SDS011;38443;53.164;5.802;2023-04-06T03:02:41;11.13;;;8.90;;
52534;SDS011;38443;53.164;5.802;2023-04-06T03:05:07;15.23;;;8.20;;
52534;SDS011;38443;53.164;5.802;2023-04-06T03:09:57;11.63;;;7.40;;
52534;SDS011;38443;53.164;5.802;2023-04-06T03:12:23;9.63;;;7.25;;
52534;SDS011;38443;53.164;5.802;2023-04-06T03:17:13;14.23;;;8.13;;
52534;SDS011;38443;53.164;5.802;2023-04-06T03:22:04;11.00;;;7.43;;
52534;SDS011;38443;53.164;5.802;2023-04-06T03:24:29;10.32;;;7.63;;
52534;SDS011;38443;53.164;5.802;2023-04-06T03:29:20;13.70;;;7.70;;
52534;SDS011;38443;53.164;5.802;2023-04-06T03:34:10;10.63;;;7.18;;
52534;SDS011;38443;53.164;5.802;2023-04-06T03:36:36;10.90;;;7.82;;
52534;SDS011;38443;53.164;5.802;2023-04-06T03:39:01;13.55;;;8.30;;
52534;SDS011;38443;53.164;5.802;2023-04-06T03:43:52;11.82;;;8.02;;
52534;SDS011;38443;53.164;5.802;2023-04-06T03:48:42;15.67;;;7.97;;
52534;SDS011;38443;53.164;5.802;2023-04-06T03:53:33;10.85;;;8.25;;
52534;SDS011;38443;53.164;5.802;2023-04-06T03:58:24;16.52;;;8.10;;
52534;SDS011;38443;53.164;5.802;2023-04-06T04:03:14;12.93;;;8.13;;
52534;SDS011;38443;53.164;5.802;2023-04-06T04:08:05;13.13;;;7.95;;
52534;SDS011;38443;53.164;5.802;2023-04-06T04:12:55;12.40;;;7.85;;
52534;SDS011;38443;53.164;5.802;2023-04-06T04:17:46;13.80;;;8.60;;
52534;SDS011;38443;53.164;5.802;2023-04-06T04:20:14;12.13;;;8.60;;
52534;SDS011;38443;53.164;5.802;2023-04-06T04:25:05;12.77;;;8.13;;
52534;SDS011;38443;53.164;5.802;2023-04-06T04:27:30;12.05;;;8.35;;
52534;SDS011;38443;53.164;5.802;2023-04-06T04:32:21;12.02;;;8.50;;
52534;SDS011;38443;53.164;5.802;2023-04-06T04:37:12;13.13;;;8.82;;
52534;SDS011;38443;53.164;5.802;2023-04-06T04:42:02;12.60;;;8.10;;
52534;SDS011;38443;53.164;5.802;2023-04-06T04:46:53;12.93;;;8.40;;
52534;SDS011;38443;53.164;5.802;2023-04-06T04:51:43;12.95;;;9.00;;
52534;SDS011;38443;53.164;5.802;2023-04-06T04:56:34;11.82;;;8.68;;
52534;SDS011;38443;53.164;5.802;2023-04-06T05:01:25;14.10;;;9.45;;
52534;SDS011;38443;53.164;5.802;2023-04-06T05:06:15;15.00;;;8.95;;
52534;SDS011;38443;53.164;5.802;2023-04-06T05:11:06;11.98;;;8.18;;
52534;SDS011;38443;53.164;5.802;2023-04-06T05:13:31;16.98;;;9.20;;
52534;SDS011;38443;53.164;5.802;2023-04-06T05:18:22;13.57;;;8.82;;
52534;SDS011;38443;53.164;5.802;2023-04-06T05:23:13;12.98;;;9.02;;
52534;SDS011;38443;53.164;5.802;2023-04-06T05:28:03;18.42;;;9.85;;
52534;SDS011;38443;53.164;5.802;2023-04-06T05:32:55;13.68;;;9.25;;
52534;SDS011;38443;53.164;5.802;2023-04-06T05:37:45;15.63;;;9.93;;
52534;SDS011;38443;53.164;5.802;2023-04-06T05:42:40;13.20;;;8.70;;
52534;SDS011;38443;53.164;5.802;2023-04-06T05:45:07;14.35;;;9.25;;
52534;SDS011;38443;53.164;5.802;2023-04-06T05:47:34;13.90;;;9.25;;
52534;SDS011;38443;53.164;5.802;2023-04-06T05:52:25;15.60;;;8.85;;
52534;SDS011;38443;53.164;5.802;2023-04-06T05:57:15;14.45;;;9.73;;
52534;SDS011;38443;53.164;5.802;2023-04-06T06:02:07;16.40;;;9.40;;
52534;SDS011;38443;53.164;5.802;2023-04-06T06:06:57;16.67;;;8.97;;
52534;SDS011;38443;53.164;5.802;2023-04-06T06:11:48;14.60;;;8.32;;
52534;SDS011;38443;53.164;5.802;2023-04-06T06:16:39;15.02;;;8.95;;
52534;SDS011;38443;53.164;5.802;2023-04-06T06:21:29;12.98;;;8.80;;
52534;SDS011;38443;53.164;5.802;2023-04-06T06:23:56;13.07;;;9.00;;
52534;SDS011;38443;53.164;5.802;2023-04-06T06:28:47;14.18;;;8.52;;
52534;SDS011;38443;53.164;5.802;2023-04-06T06:33:37;12.38;;;9.13;;
52534;SDS011;38443;53.164;5.802;2023-04-06T06:36:03;15.38;;;9.70;;
52534;SDS011;38443;53.164;5.802;2023-04-06T06:40:53;14.05;;;9.48;;
52534;SDS011;38443;53.164;5.802;2023-04-06T06:45:44;16.55;;;8.93;;
52534;SDS011;38443;53.164;5.802;2023-04-06T06:50:35;14.50;;;9.15;;
52534;SDS011;38443;53.164;5.802;2023-04-06T06:55:26;13.85;;;8.98;;
52534;SDS011;38443;53.164;5.802;2023-04-06T06:57:52;13.80;;;9.32;;
52534;SDS011;38443;53.164;5.802;2023-04-06T07:02:45;14.20;;;9.30;;
52534;SDS011;38443;53.164;5.802;2023-04-06T07:07:36;12.98;;;8.95;;
52534;SDS011;38443;53.164;5.802;2023-04-06T07:12:27;14.45;;;8.82;;
52534;SDS011;38443;53.164;5.802;2023-04-06T07:17:18;14.80;;;9.40;;
52534;SDS011;38443;53.164;5.802;2023-04-06T07:22:08;15.05;;;8.80;;
52534;SDS011;38443;53.164;5.802;2023-04-06T07:26:59;15.27;;;9.20;;
52534;SDS011;38443;53.164;5.802;2023-04-06T07:31:51;14.85;;;8.80;;
52534;SDS011;38443;53.164;5.802;2023-04-06T07:36:42;13.95;;;9.15;;
52534;SDS011;38443;53.164;5.802;2023-04-06T07:41:32;15.90;;;8.90;;
52534;SDS011;38443;53.164;5.802;2023-04-06T07:46:23;15.70;;;9.02;;
52534;SDS011;38443;53.164;5.802;2023-04-06T07:51:15;15.95;;;9.30;;
52534;SDS011;38443;53.164;5.802;2023-04-06T07:53:42;13.55;;;8.68;;
52534;SDS011;38443;53.164;5.802;2023-04-06T07:56:09;17.70;;;9.15;;
52534;SDS011;38443;53.164;5.802;2023-04-06T08:01:00;16.85;;;9.60;;
52534;SDS011;38443;53.164;5.802;2023-04-06T08:05:52;13.80;;;8.90;;
52534;SDS011;38443;53.164;5.802;2023-04-06T08:08:17;14.82;;;9.00;;
52534;SDS011;38443;53.164;5.802;2023-04-06T08:13:08;13.90;;;8.97;;
52534;SDS011;38443;53.164;5.802;2023-04-06T08:17:59;14.00;;;9.13;;
52534;SDS011;38443;53.164;5.802;2023-04-06T08:22:50;15.45;;;9.60;;
52534;SDS011;38443;53.164;5.802;2023-04-06T08:27:40;13.02;;;8.88;;
52534;SDS011;38443;53.164;5.802;2023-04-06T08:32:31;14.57;;;9.45;;
52534;SDS011;38443;53.164;5.802;2023-04-06T08:37:22;14.52;;;9.48;;
52534;SDS011;38443;53.164;5.802;2023-04-06T08:42:16;14.90;;;9.63;;
52534;SDS011;38443;53.164;5.802;2023-04-06T08:44:45;14.73;;;10.13;;
52534;SDS011;38443;53.164;5.802;2023-04-06T08:47:12;15.05;;;9.60;;
52534;SDS011;38443;53.164;5.802;2023-04-06T08:52:05;14.63;;;9.88;;
52534;SDS011;38443;53.164;5.802;2023-04-06T08:54:33;16.33;;;10.70;;
52534;SDS011;38443;53.164;5.802;2023-04-06T08:59:24;19.67;;;11.32;;
52534;SDS011;38443;53.164;5.802;2023-04-06T09:01:50;17.52;;;10.52;;
52534;SDS011;38443;53.164;5.802;2023-04-06T09:04:18;16.40;;;10.57;;
52534;SDS011;38443;53.164;5.802;2023-04-06T09:09:08;19.65;;;11.32;;
52534;SDS011;38443;53.164;5.802;2023-04-06T09:11:50;19.60;;;10.43;;
52534;SDS011;38443;53.164;5.802;2023-04-06T09:14:17;19.73;;;11.50;;
52534;SDS011;38443;53.164;5.802;2023-04-06T09:16:57;21.20;;;12.35;;
52534;SDS011;38443;53.164;5.802;2023-04-06T09:21:48;21.88;;;12.02;;
52534;SDS011;38443;53.164;5.802;2023-04-06T09:26:45;23.27;;;12.23;;
52534;SDS011;38443;53.164;5.802;2023-04-06T09:29:21;20.38;;;11.85;;
52534;SDS011;38443;53.164;5.802;2023-04-06T09:32:01;22.85;;;11.65;;
52534;SDS011;38443;53.164;5.802;2023-04-06T09:34:27;19.92;;;12.02;;
52534;SDS011;38443;53.164;5.802;2023-04-06T09:39:20;19.25;;;11.55;;
52534;SDS011;38443;53.164;5.802;2023-04-06T09:41:51;15.63;;;10.70;;
52534;SDS011;38443;53.164;5.802;2023-04-06T09:44:17;19.42;;;11.75;;
52534;SDS011;38443;53.164;5.802;2023-04-06T09:49:09;19.55;;;12.98;;
52534;SDS011;38443;53.164;5.802;2023-04-06T09:51:39;22.00;;;11.88;;
52534;SDS011;38443;53.164;5.802;2023-04-06T09:54:18;17.77;;;12.07;;
52534;SDS011;38443;53.164;5.802;2023-04-06T09:56:50;18.40;;;11.82;;
52534;SDS011;38443;53.164;5.802;2023-04-06T10:02:18;21.77;;;11.68;;
52534;SDS011;38443;53.164;5.802;2023-04-06T10:05:16;21.08;;;12.85;;
52534;SDS011;38443;53.164;5.802;2023-04-06T10:07:43;24.65;;;12.10;;
52534;SDS011;38443;53.164;5.802;2023-04-06T10:10:10;20.40;;;12.55;;
52534;SDS011;38443;53.164;5.802;2023-04-06T10:12:39;22.63;;;13.13;;
52534;SDS011;38443;53.164;5.802;2023-04-06T10:15:05;20.83;;;13.23;;
52534;SDS011;38443;53.164;5.802;2023-04-06T10:17:31;21.58;;;12.20;;
52534;SDS011;38443;53.164;5.802;2023-04-06T10:22:36;23.63;;;12.95;;
52534;SDS011;38443;53.164;5.802;2023-04-06T10:25:08;21.35;;;12.13;;
52534;SDS011;38443;53.164;5.802;2023-04-06T10:30:05;18.35;;;12.18;;
52534;SDS011;38443;53.164;5.802;2023-04-06T10:32:32;21.52;;;12.60;;
52534;SDS011;38443;53.164;5.802;2023-04-06T10:35:35;18.85;;;12.10;;
52534;SDS011;38443;53.164;5.802;2023-04-06T10:38:02;23.38;;;13.00;;
52534;SDS011;38443;53.164;5.802;2023-04-06T10:40:29;24.15;;;13.35;;
52534;SDS011;38443;53.164;5.802;2023-04-06T10:43:06;20.83;;;11.77;;
52534;SDS011;38443;53.164;5.802;2023-04-06T10:47:58;22.83;;;12.90;;
52534;SDS011;38443;53.164;5.802;2023-04-06T10:50:23;25.13;;;14.10;;
52534;SDS011;38443;53.164;5.802;2023-04-06T10:52:59;23.70;;;12.68;;
52534;SDS011;38443;53.164;5.802;2023-04-06T10:55:26;22.40;;;13.55;;
52534;SDS011;38443;53.164;5.802;2023-04-06T10:57:53;28.08;;;14.18;;
52534;SDS011;38443;53.164;5.802;2023-04-06T11:02:44;24.67;;;14.18;;
52534;SDS011;38443;53.164;5.802;2023-04-06T11:07:36;24.17;;;13.50;;
52534;SDS011;38443;53.164;5.802;2023-04-06T11:10:02;26.42;;;15.23;;
52534;SDS011;38443;53.164;5.802;2023-04-06T11:12:27;21.02;;;13.15;;
52534;SDS011;38443;53.164;5.802;2023-04-06T11:17:34;27.13;;;15.30;;
52534;SDS011;38443;53.164;5.802;2023-04-06T11:20:01;23.08;;;13.98;;
52534;SDS011;38443;53.164;5.802;2023-04-06T11:22:27;27.85;;;14.30;;
52534;SDS011;38443;53.164;5.802;2023-04-06T11:24:53;23.27;;;13.70;;
52534;SDS011;38443;53.164;5.802;2023-04-06T11:27:30;23.17;;;13.80;;
52534;SDS011;38443;53.164;5.802;2023-04-06T11:29:57;24.70;;;13.68;;
52534;SDS011;38443;53.164;5.802;2023-04-06T11:32:23;25.60;;;13.88;;
52534;SDS011;38443;53.164;5.802;2023-04-06T11:34:49;25.05;;;14.00;;
52534;SDS011;38443;53.164;5.802;2023-04-06T11:37:15;20.10;;;13.15;;
52534;SDS011;38443;53.164;5.802;2023-04-06T11:39:43;26.70;;;14.25;;
52534;SDS011;38443;53.164;5.802;2023-04-06T11:42:20;21.58;;;13.18;;
52534;SDS011;38443;53.164;5.802;2023-04-06T11:44:50;24.45;;;13.73;;
52534;SDS011;38443;53.164;5.802;2023-04-06T11:47:17;21.73;;;13.15;;
52534;SDS011;38443;53.164;5.802;2023-04-06T11:49:45;23.67;;;13.40;;
52534;SDS011;38443;53.164;5.802;2023-04-06T11:52:21;25.52;;;13.15;;
52534;SDS011;38443;53.164;5.802;2023-04-06T11:54:49;26.13;;;14.05;;
52534;SDS011;38443;53.164;5.802;2023-04-06T11:57:17;22.95;;;13.57;;
52534;SDS011;38443;53.164;5.802;2023-04-06T11:59:43;22.25;;;12.57;;
52534;SDS011;38443;53.164;5.802;2023-04-06T12:02:09;21.55;;;14.15;;
52534;SDS011;38443;53.164;5.802;2023-04-06T12:04:35;21.60;;;12.80;;
52534;SDS011;38443;53.164;5.802;2023-04-06T12:07:01;21.95;;;13.35;;
52534;SDS011;38443;53.164;5.802;2023-04-06T12:09:27;22.15;;;12.45;;
52534;SDS011;38443;53.164;5.802;2023-04-06T12:11:52;19.55;;;10.75;;
52534;SDS011;38443;53.164;5.802;2023-04-06T12:14:18;22.05;;;11.68;;
52534;SDS011;38443;53.164;5.802;2023-04-06T12:16:43;18.13;;;11.35;;
52534;SDS011;38443;53.164;5.802;2023-04-06T12:19:09;18.92;;;11.65;;
52534;SDS011;38443;53.164;5.802;2023-04-06T12:21:34;22.98;;;12.60;;
52534;SDS011;38443;53.164;5.802;2023-04-06T12:24:03;20.58;;;11.32;;
52534;SDS011;38443;53.164;5.802;2023-04-06T12:26:30;18.05;;;10.95;;
52534;SDS011;38443;53.164;5.802;2023-04-06T12:28:56;19.60;;;11.55;;
52534;SDS011;38443;53.164;5.802;2023-04-06T12:31:22;18.70;;;10.55;;
52534;SDS011;38443;53.164;5.802;2023-04-06T12:33:50;18.17;;;9.75;;
52534;SDS011;38443;53.164;5.802;2023-04-06T12:36:16;15.85;;;10.48;;
52534;SDS011;38443;53.164;5.802;2023-04-06T12:38:49;16.30;;;9.77;;
52534;SDS011;38443;53.164;5.802;2023-04-06T12:41:15;18.48;;;10.52;;
52534;SDS011;38443;53.164;5.802;2023-04-06T12:43:41;13.98;;;8.15;;
52534;SDS011;38443;53.164;5.802;2023-04-06T12:46:08;13.52;;;8.20;;
52534;SDS011;38443;53.164;5.802;2023-04-06T12:48:34;12.73;;;7.82;;
52534;SDS011;38443;53.164;5.802;2023-04-06T12:51:01;14.57;;;8.68;;
52534;SDS011;38443;53.164;5.802;2023-04-06T12:53:27;15.40;;;8.20;;
52534;SDS011;38443;53.164;5.802;2023-04-06T12:55:53;11.75;;;7.85;;
52534;SDS011;38443;53.164;5.802;2023-04-06T12:58:20;12.98;;;8.98;;
52534;SDS011;38443;53.164;5.802;2023-04-06T13:00:46;16.00;;;7.85;;
52534;SDS011;38443;53.164;5.802;2023-04-06T13:03:12;13.00;;;7.47;;
52534;SDS011;38443;53.164;5.802;2023-04-06T13:05:44;10.98;;;7.03;;
52534;SDS011;38443;53.164;5.802;2023-04-06T13:08:10;14.00;;;7.38;;
52534;SDS011;38443;53.164;5.802;2023-04-06T13:10:36;11.88;;;7.13;;
52534;SDS011;38443;53.164;5.802;2023-04-06T13:13:01;10.05;;;5.65;;
52534;SDS011;38443;53.164;5.802;2023-04-06T13:15:27;10.82;;;7.00;;
52534;SDS011;38443;53.164;5.802;2023-04-06T13:17:52;11.55;;;7.75;;
52534;SDS011;38443;53.164;5.802;2023-04-06T13:22:43;13.10;;;8.67;;
52534;SDS011;38443;53.164;5.802;2023-04-06T13:25:08;13.93;;;8.80;;
52534;SDS011;38443;53.164;5.802;2023-04-06T13:27:33;15.13;;;10.40;;
52534;SDS011;38443;53.164;5.802;2023-04-06T13:30:00;19.40;;;10.48;;
52534;SDS011;38443;53.164;5.802;2023-04-06T13:34:54;17.25;;;9.48;;
52534;SDS011;38443;53.164;5.802;2023-04-06T13:37:20;17.38;;;11.43;;
52534;SDS011;38443;53.164;5.802;2023-04-06T13:42:10;16.37;;;10.83;;
52534;SDS011;38443;53.164;5.802;2023-04-06T13:47:01;17.45;;;10.43;;
52534;SDS011;38443;53.164;5.802;2023-04-06T13:49:26;16.50;;;10.73;;
52534;SDS011;38443;53.164;5.802;2023-04-06T13:51:52;17.10;;;10.65;;
52534;SDS011;38443;53.164;5.802;2023-04-06T13:54:17;17.77;;;11.90;;
52534;SDS011;38443;53.164;5.802;2023-04-06T13:56:42;23.23;;;11.05;;
52534;SDS011;38443;53.164;5.802;2023-04-06T14:01:33;16.75;;;11.02;;
52534;SDS011;38443;53.164;5.802;2023-04-06T14:03:58;21.58;;;12.48;;
52534;SDS011;38443;53.164;5.802;2023-04-06T14:08:49;20.60;;;11.80;;
52534;SDS011;38443;53.164;5.802;2023-04-06T14:11:15;19.08;;;11.90;;
52534;SDS011;38443;53.164;5.802;2023-04-06T14:16:06;19.70;;;11.90;;
52534;SDS011;38443;53.164;5.802;2023-04-06T14:18:32;23.23;;;12.95;;
52534;SDS011;38443;53.164;5.802;2023-04-06T14:20:58;18.02;;;11.55;;
52534;SDS011;38443;53.164;5.802;2023-04-06T14:23:25;19.30;;;12.38;;
52534;SDS011;38443;53.164;5.802;2023-04-06T14:26:13;19.55;;;12.88;;
52534;SDS011;38443;53.164;5.802;2023-04-06T14:28:38;20.98;;;12.27;;
52534;SDS011;38443;53.164;5.802;2023-04-06T14:33:34;22.77;;;14.40;;
52534;SDS011;38443;53.164;5.802;2023-04-06T14:38:27;23.10;;;13.18;;
52534;SDS011;38443;53.164;5.802;2023-04-06T14:43:18;23.45;;;13.70;;
52534;SDS011;38443;53.164;5.802;2023-04-06T14:48:09;21.95;;;14.07;;
52534;SDS011;38443;53.164;5.802;2023-04-06T14:50:37;22.08;;;14.60;;
52534;SDS011;38443;53.164;5.802;2023-04-06T14:53:03;26.08;;;15.68;;
52534;SDS011;38443;53.164;5.802;2023-04-06T14:57:54;29.55;;;15.98;;
52534;SDS011;38443;53.164;5.802;2023-04-06T15:00:19;29.33;;;15.57;;
52534;SDS011;38443;53.164;5.802;2023-04-06T15:05:10;24.57;;;16.20;;
52534;SDS011;38443;53.164;5.802;2023-04-06T15:10:01;26.83;;;16.20;;
52534;SDS011;38443;53.164;5.802;2023-04-06T15:14:51;28.83;;;16.70;;
52534;SDS011;38443;53.164;5.802;2023-04-06T15:19:42;25.98;;;17.52;;
52534;SDS011;38443;53.164;5.802;2023-04-06T15:24:32;31.40;;;16.60;;
52534;SDS011;38443;53.164;5.802;2023-04-06T15:29:23;30.30;;;18.30;;
52534;SDS011;38443;53.164;5.802;2023-04-06T15:31:50;31.45;;;18.40;;
52534;SDS011;38443;53.164;5.802;2023-04-06T15:36:41;32.20;;;17.17;;
52534;SDS011;38443;53.164;5.802;2023-04-06T15:39:08;27.45;;;16.38;;
52534;SDS011;38443;53.164;5.802;2023-04-06T15:43:59;20.65;;;12.93;;
52534;SDS011;38443;53.164;5.802;2023-04-06T15:48:51;13.93;;;8.33;;
52534;SDS011;38443;53.164;5.802;2023-04-06T15:51:17;12.68;;;8.35;;
52534;SDS011;38443;53.164;5.802;2023-04-06T15:56:08;13.90;;;8.60;;
52534;SDS011;38443;53.164;5.802;2023-04-06T16:01:00;20.08;;;9.80;;
52534;SDS011;38443;53.164;5.802;2023-04-06T16:05:51;14.63;;;8.80;;
52534;SDS011;38443;53.164;5.802;2023-04-06T16:08:17;15.07;;;9.15;;
52534;SDS011;38443;53.164;5.802;2023-04-06T16:10:43;12.75;;;8.23;;
52534;SDS011;38443;53.164;5.802;2023-04-06T16:15:34;13.40;;;7.78;;
52534;SDS011;38443;53.164;5.802;2023-04-06T16:20:26;10.13;;;7.65;;
52534;SDS011;38443;53.164;5.802;2023-04-06T16:22:51;10.95;;;8.15;;
52534;SDS011;38443;53.164;5.802;2023-04-06T16:27:42;12.70;;;7.57;;
52534;SDS011;38443;53.164;5.802;2023-04-06T16:32:33;12.40;;;8.13;;
52534;SDS011;38443;53.164;5.802;2023-04-06T16:37:25;14.55;;;8.35;;
52534;SDS011;38443;53.164;5.802;2023-04-06T16:39:50;12.18;;;7.47;;
52534;SDS011;38443;53.164;5.802;2023-04-06T16:44:44;13.05;;;7.97;;
52534;SDS011;38443;53.164;5.802;2023-04-06T16:47:12;11.98;;;6.95;;
52534;SDS011;38443;53.164;5.802;2023-04-06T16:49:41;10.93;;;7.60;;
52534;SDS011;38443;53.164;5.802;2023-04-06T16:52:07;13.75;;;7.47;;
52534;SDS011;38443;53.164;5.802;2023-04-06T16:56:59;10.35;;;7.45;;
52534;SDS011;38443;53.164;5.802;2023-04-06T16:59:26;11.07;;;8.05;;
52534;SDS011;38443;53.164;5.802;2023-04-06T17:04:17;11.80;;;7.20;;
52534;SDS011;38443;53.164;5.802;2023-04-06T17:09:08;10.70;;;7.50;;
52534;SDS011;38443;53.164;5.802;2023-04-06T17:13:58;13.30;;;8.05;;
52534;SDS011;38443;53.164;5.802;2023-04-06T17:18:49;13.07;;;8.32;;
52534;SDS011;38443;53.164;5.802;2023-04-06T17:23:41;12.88;;;7.90;;
52534;SDS011;38443;53.164;5.802;2023-04-06T17:28:31;13.37;;;8.77;;
52534;SDS011;38443;53.164;5.802;2023-04-06T17:33:23;12.93;;;8.68;;
52534;SDS011;38443;53.164;5.802;2023-04-06T17:35:49;17.00;;;8.80;;
52534;SDS011;38443;53.164;5.802;2023-04-06T17:40:40;15.95;;;9.77;;
52534;SDS011;38443;53.164;5.802;2023-04-06T17:45:31;13.63;;;9.70;;
52534;SDS011;38443;53.164;5.802;2023-04-06T17:50:22;16.90;;;10.02;;
52534;SDS011;38443;53.164;5.802;2023-04-06T17:55:13;16.38;;;10.40;;
52534;SDS011;38443;53.164;5.802;2023-04-06T18:00:07;19.25;;;10.13;;
52534;SDS011;38443;53.164;5.802;2023-04-06T18:02:36;21.90;;;11.05;;
52534;SDS011;38443;53.164;5.802;2023-04-06T18:07:27;19.83;;;10.82;;
52534;SDS011;38443;53.164;5.802;2023-04-06T18:12:18;22.00;;;10.88;;
52534;SDS011;38443;53.164;5.802;2023-04-06T18:17:09;18.17;;;10.32;;
52534;SDS011;38443;53.164;5.802;2023-04-06T18:22:01;17.70;;;10.85;;
52534;SDS011;38443;53.164;5.802;2023-04-06T18:26:52;17.00;;;10.57;;
52534;SDS011;38443;53.164;5.802;2023-04-06T18:31:43;21.30;;;10.82;;
52534;SDS011;38443;53.164;5.802;2023-04-06T18:34:14;18.45;;;11.25;;
52534;SDS011;38443;53.164;5.802;2023-04-06T18:36:40;21.13;;;11.27;;
52534;SDS011;38443;53.164;5.802;2023-04-06T18:41:31;17.67;;;11.03;;
52534;SDS011;38443;53.164;5.802;2023-04-06T18:46:21;20.03;;;10.73;;
52534;SDS011;38443;53.164;5.802;2023-04-06T18:51:12;20.93;;;11.70;;
52534;SDS011;38443;53.164;5.802;2023-04-06T18:56:02;20.35;;;11.05;;
52534;SDS011;38443;53.164;5.802;2023-04-06T18:58:36;18.63;;;10.77;;
52534;SDS011;38443;53.164;5.802;2023-04-06T19:03:27;19.33;;;11.77;;
52534;SDS011;38443;53.164;5.802;2023-04-06T19:08:18;17.48;;;11.45;;
52534;SDS011;38443;53.164;5.802;2023-04-06T19:13:08;20.15;;;11.32;;
52534;SDS011;38443;53.164;5.802;2023-04-06T19:17:59;19.17;;;12.50;;
52534;SDS011;38443;53.164;5.802;2023-04-06T19:22:50;20.77;;;12.23;;
52534;SDS011;38443;53.164;5.802;2023-04-06T19:27:41;21.27;;;12.18;;
52534;SDS011;38443;53.164;5.802;2023-04-06T19:32:33;22.73;;;12.10;;
52534;SDS011;38443;53.164;5.802;2023-04-06T19:34:59;21.83;;;12.48;;
52534;SDS011;38443;53.164;5.802;2023-04-06T19:37:26;23.27;;;13.45;;
52534;SDS011;38443;53.164;5.802;2023-04-06T19:42:17;22.50;;;14.50;;
52534;SDS011;38443;53.164;5.802;2023-04-06T19:44:45;25.90;;;16.23;;
52534;SDS011;38443;53.164;5.802;2023-04-06T19:47:14;24.08;;;14.52;;
52534;SDS011;38443;53.164;5.802;2023-04-06T19:52:06;25.03;;;14.47;;
52534;SDS011;38443;53.164;5.802;2023-04-06T19:54:34;27.63;;;15.65;;
52534;SDS011;38443;53.164;5.802;2023-04-06T19:57:00;26.35;;;15.85;;
52534;SDS011;38443;53.164;5.802;2023-04-06T20:01:51;29.17;;;16.40;;
52534;SDS011;38443;53.164;5.802;2023-04-06T20:06:41;25.33;;;16.00;;
52534;SDS011;38443;53.164;5.802;2023-04-06T20:11:33;29.90;;;17.63;;
52534;SDS011;38443;53.164;5.802;2023-04-06T20:13:59;27.83;;;17.67;;
52534;SDS011;38443;53.164;5.802;2023-04-06T20:16:27;30.13;;;17.55;;
52534;SDS011;38443;53.164;5.802;2023-04-06T20:21:18;31.20;;;16.90;;
52534;SDS011;38443;53.164;5.802;2023-04-06T20:26:08;30.50;;;17.70;;
52534;SDS011;38443;53.164;5.802;2023-04-06T20:30:59;31.45;;;17.23;;
52534;SDS011;38443;53.164;5.802;2023-04-06T20:35:57;32.20;;;19.00;;
52534;SDS011;38443;53.164;5.802;2023-04-06T20:38:26;36.17;;;19.63;;
52534;SDS011;38443;53.164;5.802;2023-04-06T20:43:18;34.72;;;19.55;;
52534;SDS011;38443;53.164;5.802;2023-04-06T20:45:49;35.42;;;19.13;;
52534;SDS011;38443;53.164;5.802;2023-04-06T20:48:15;28.00;;;18.30;;
52534;SDS011;38443;53.164;5.802;2023-04-06T20:53:06;36.05;;;20.30;;
52534;SDS011;38443;53.164;5.802;2023-04-06T20:57:58;40.42;;;21.25;;
52534;SDS011;38443;53.164;5.802;2023-04-06T21:02:48;41.23;;;20.53;;
52534;SDS011;38443;53.164;5.802;2023-04-06T21:07:39;43.58;;;24.70;;
52534;SDS011;38443;53.164;5.802;2023-04-06T21:12:30;41.60;;;22.75;;
52534;SDS011;38443;53.164;5.802;2023-04-06T21:17:20;41.77;;;24.13;;
52534;SDS011;38443;53.164;5.802;2023-04-06T21:22:11;46.88;;;25.25;;
52534;SDS011;38443;53.164;5.802;2023-04-06T21:27:01;47.10;;;24.80;;
52534;SDS011;38443;53.164;5.802;2023-04-06T21:31:52;48.37;;;24.57;;
52534;SDS011;38443;53.164;5.802;2023-04-06T21:34:19;50.63;;;27.20;;
52534;SDS011;38443;53.164;5.802;2023-04-06T21:39:10;51.65;;;26.63;;
52534;SDS011;38443;53.164;5.802;2023-04-06T21:44:00;54.88;;;29.85;;
52534;SDS011;38443;53.164;5.802;2023-04-06T21:48:51;49.90;;;27.42;;
52534;SDS011;38443;53.164;5.802;2023-04-06T21:53:42;56.35;;;28.38;;
52534;SDS011;38443;53.164;5.802;2023-04-06T21:58:33;45.07;;;26.17;;
52534;SDS011;38443;53.164;5.802;2023-04-06T22:03:25;48.83;;;27.45;;
52534;SDS011;38443;53.164;5.802;2023-04-06T22:08:15;50.72;;;25.67;;
52534;SDS011;38443;53.164;5.802;2023-04-06T22:13:06;51.23;;;27.60;;
52534;SDS011;38443;53.164;5.802;2023-04-06T22:17:57;54.28;;;29.50;;
52534;SDS011;38443;53.164;5.802;2023-04-06T22:22:47;50.87;;;26.43;;